sensor_id;sensor_type;location;lat;lon;timestamp;temperature;humidity
8563;DHT22;16392;52.508;13.468;2023-06-19T00:29:11;17.70;99.90
8563;DHT22;16392;52.508;13.468;2023-06-19T00:31:37;17.70;99.90
8563;DHT22;16392;52.508;13.468;2023-06-19T00:34:05;17.70;99.90
8563;DHT22;16392;52.508;13.468;2023-06-19T00:36:32;17.70;99.90
8563;DHT22;16392;52.508;13.468;2023-06-19T00:39:05;17.80;99.90
8563;DHT22;16392;52.508;13.468;2023-06-19T00:41:34;17.80;99.90
8563;DHT22;16392;52.508;13.468;2023-06-19T00:44:01;17.80;99.90
8563;DHT22;16392;52.508;13.468;2023-06-19T00:46:30;17.80;99.90
8563;DHT22;16392;52.508;13.468;2023-06-19T00:48:57;17.80;99.90
8563;DHT22;16392;52.508;13.468;2023-06-19T00:51:25;17.80;99.90
8563;DHT22;16392;52.508;13.468;2023-06-19T00:53:52;17.90;99.90
8563;DHT22;16392;52.508;13.468;2023-06-19T00:56:19;17.90;99.90
8563;DHT22;16392;52.508;13.468;2023-06-19T00:58:46;17.90;99.90
8563;DHT22;16392;52.508;13.468;2023-06-19T01:01:12;17.90;99.90
8563;DHT22;16392;52.508;13.468;2023-06-19T01:03:41;18.00;99.90
8563;DHT22;16392;52.508;13.468;2023-06-19T01:06:12;18.00;99.90
8563;DHT22;16392;52.508;13.468;2023-06-19T01:08:45;18.00;99.90
8563;DHT22;16392;52.508;13.468;2023-06-19T01:11:25;18.00;99.90
8563;DHT22;16392;52.508;13.468;2023-06-19T01:13:58;18.00;99.90
8563;DHT22;16392;52.508;13.468;2023-06-19T01:16:25;18.00;99.90
8563;DHT22;16392;52.508;13.468;2023-06-19T01:18:54;18.00;99.90
8563;DHT22;16392;52.508;13.468;2023-06-19T01:21:22;18.00;99.90
8563;DHT22;16392;52.508;13.468;2023-06-19T01:23:50;18.00;99.90
8563;DHT22;16392;52.508;13.468;2023-06-19T01:26:17;17.90;99.90
8563;DHT22;16392;52.508;13.468;2023-06-19T01:28:45;17.90;99.90
8563;DHT22;16392;52.508;13.468;2023-06-19T01:31:15;17.90;99.90
8563;DHT22;16392;52.508;13.468;2023-06-19T01:33:45;17.80;99.90
8563;DHT22;16392;52.508;13.468;2023-06-19T01:36:12;17.80;99.90
8563;DHT22;16392;52.508;13.468;2023-06-19T01:38:40;17.70;99.90
8563;DHT22;16392;52.508;13.468;2023-06-19T01:41:12;17.70;99.90
8563;DHT22;16392;52.508;13.468;2023-06-19T01:43:40;17.70;99.90
8563;DHT22;16392;52.508;13.468;2023-06-19T01:46:08;17.70;99.90
8563;DHT22;16392;52.508;13.468;2023-06-19T01:48:35;17.70;99.90
8563;DHT22;16392;52.508;13.468;2023-06-19T01:51:02;17.80;99.90
8563;DHT22;16392;52.508;13.468;2023-06-19T01:53:30;17.80;99.90
8563;DHT22;16392;52.508;13.468;2023-06-19T01:55:57;17.80;99.90
8563;DHT22;16392;52.508;13.468;2023-06-19T01:58:26;17.90;99.90
8563;DHT22;16392;52.508;13.468;2023-06-19T02:00:53;17.90;99.90
8563;DHT22;16392;52.508;13.468;2023-06-19T02:03:19;17.90;99.90
8563;DHT22;16392;52.508;13.468;2023-06-19T02:05:47;17.90;99.90
8563;DHT22;16392;52.508;13.468;2023-06-19T02:08:14;17.90;99.90
8563;DHT22;16392;52.508;13.468;2023-06-19T02:10:41;17.90;99.90
8563;DHT22;16392;52.508;13.468;2023-06-19T02:13:08;17.90;99.90
8563;DHT22;16392;52.508;13.468;2023-06-19T02:15:40;17.90;99.90
8563;DHT22;16392;52.508;13.468;2023-06-19T02:18:08;17.90;99.90
8563;DHT22;16392;52.508;13.468;2023-06-19T02:20:35;18.00;99.90
8563;DHT22;16392;52.508;13.468;2023-06-19T02:23:02;17.90;99.90
8563;DHT22;16392;52.508;13.468;2023-06-19T02:25:29;17.90;99.90
8563;DHT22;16392;52.508;13.468;2023-06-19T02:27:57;17.90;99.90
8563;DHT22;16392;52.508;13.468;2023-06-19T02:30:23;17.90;99.90
8563;DHT22;16392;52.508;13.468;2023-06-19T02:32:51;17.90;99.90
8563;DHT22;16392;52.508;13.468;2023-06-19T02:35:18;17.90;99.90
8563;DHT22;16392;52.508;13.468;2023-06-19T02:37:46;17.80;99.90
8563;DHT22;16392;52.508;13.468;2023-06-19T02:40:13;17.80;99.90
8563;DHT22;16392;52.508;13.468;2023-06-19T02:42:40;17.80;99.90
8563;DHT22;16392;52.508;13.468;2023-06-19T02:45:08;17.80;99.90
8563;DHT22;16392;52.508;13.468;2023-06-19T02:47:36;17.90;99.90
8563;DHT22;16392;52.508;13.468;2023-06-19T02:50:05;17.90;99.90
8563;DHT22;16392;52.508;13.468;2023-06-19T02:52:32;17.90;99.90
8563;DHT22;16392;52.508;13.468;2023-06-19T02:55:00;18.00;99.90
8563;DHT22;16392;52.508;13.468;2023-06-19T02:57:27;17.90;99.90
8563;DHT22;16392;52.508;13.468;2023-06-19T02:59:54;17.90;99.90
8563;DHT22;16392;52.508;13.468;2023-06-19T03:02:21;18.00;99.90
8563;DHT22;16392;52.508;13.468;2023-06-19T03:04:51;18.00;99.90
8563;DHT22;16392;52.508;13.468;2023-06-19T03:07:20;18.00;99.90
8563;DHT22;16392;52.508;13.468;2023-06-19T03:09:47;17.90;99.90
8563;DHT22;16392;52.508;13.468;2023-06-19T03:12:14;17.90;99.90
8563;DHT22;16392;52.508;13.468;2023-06-19T03:14:40;17.90;99.90
8563;DHT22;16392;52.508;13.468;2023-06-19T03:17:08;17.90;99.90
8563;DHT22;16392;52.508;13.468;2023-06-19T03:19:35;17.90;99.90
8563;DHT22;16392;52.508;13.468;2023-06-19T03:22:01;17.90;99.90
8563;DHT22;16392;52.508;13.468;2023-06-19T03:24:30;18.00;99.90
8563;DHT22;16392;52.508;13.468;2023-06-19T03:26:57;18.30;99.90
8563;DHT22;16392;52.508;13.468;2023-06-19T03:29:24;18.50;99.90
8563;DHT22;16392;52.508;13.468;2023-06-19T03:31:51;18.60;99.90
8563;DHT22;16392;52.508;13.468;2023-06-19T03:34:18;18.80;99.90
8563;DHT22;16392;52.508;13.468;2023-06-19T03:36:46;19.00;99.90
8563;DHT22;16392;52.508;13.468;2023-06-19T03:39:12;19.30;99.90
8563;DHT22;16392;52.508;13.468;2023-06-19T03:41:41;19.50;99.90
8563;DHT22;16392;52.508;13.468;2023-06-19T03:44:08;19.60;99.90
8563;DHT22;16392;52.508;13.468;2023-06-19T03:46:35;19.60;99.90
8563;DHT22;16392;52.508;13.468;2023-06-19T03:49:01;19.60;99.90
8563;DHT22;16392;52.508;13.468;2023-06-19T03:51:30;19.50;99.90
8563;DHT22;16392;52.508;13.468;2023-06-19T03:53:57;19.40;99.90
8563;DHT22;16392;52.508;13.468;2023-06-19T03:56:23;19.60;99.90
8563;DHT22;16392;52.508;13.468;2023-06-19T03:58:51;20.00;99.90
8563;DHT22;16392;52.508;13.468;2023-06-19T04:01:18;20.30;99.90
8563;DHT22;16392;52.508;13.468;2023-06-19T04:03:45;20.10;99.90
8563;DHT22;16392;52.508;13.468;2023-06-19T04:06:11;19.70;99.90
8563;DHT22;16392;52.508;13.468;2023-06-19T04:08:39;19.50;99.90
8563;DHT22;16392;52.508;13.468;2023-06-19T04:11:06;19.30;99.90
8563;DHT22;16392;52.508;13.468;2023-06-19T04:13:32;19.20;99.90
8563;DHT22;16392;52.508;13.468;2023-06-19T04:16:03;19.00;99.90
8563;DHT22;16392;52.508;13.468;2023-06-19T04:18:31;18.90;99.90
8563;DHT22;16392;52.508;13.468;2023-06-19T04:20:58;18.90;99.90
8563;DHT22;16392;52.508;13.468;2023-06-19T04:23:25;18.80;99.90
8563;DHT22;16392;52.508;13.468;2023-06-19T04:25:52;18.70;99.90
8563;DHT22;16392;52.508;13.468;2023-06-19T04:28:19;18.70;99.90
8563;DHT22;16392;52.508;13.468;2023-06-19T04:30:46;18.70;99.90
8563;DHT22;16392;52.508;13.468;2023-06-19T04:33:15;18.80;99.90
8563;DHT22;16392;52.508;13.468;2023-06-19T04:35:41;18.70;99.90
8563;DHT22;16392;52.508;13.468;2023-06-19T04:38:10;18.70;99.90
8563;DHT22;16392;52.508;13.468;2023-06-19T04:40:40;18.70;99.90
8563;DHT22;16392;52.508;13.468;2023-06-19T04:43:08;18.70;99.90
8563;DHT22;16392;52.508;13.468;2023-06-19T04:45:35;18.70;99.90
8563;DHT22;16392;52.508;13.468;2023-06-19T04:48:02;18.70;99.90
8563;DHT22;16392;52.508;13.468;2023-06-19T04:50:31;18.80;99.90
8563;DHT22;16392;52.508;13.468;2023-06-19T04:52:57;18.80;99.90
8563;DHT22;16392;52.508;13.468;2023-06-19T04:55:24;18.80;99.90
8563;DHT22;16392;52.508;13.468;2023-06-19T04:57:52;18.90;99.90
8563;DHT22;16392;52.508;13.468;2023-06-19T05:00:19;18.90;99.90
8563;DHT22;16392;52.508;13.468;2023-06-19T05:02:48;18.90;99.90
8563;DHT22;16392;52.508;13.468;2023-06-19T05:05:15;18.90;99.90
8563;DHT22;16392;52.508;13.468;2023-06-19T05:07:44;18.90;99.90
8563;DHT22;16392;52.508;13.468;2023-06-19T05:10:11;18.80;99.90
8563;DHT22;16392;52.508;13.468;2023-06-19T05:12:38;18.80;99.90
8563;DHT22;16392;52.508;13.468;2023-06-19T05:15:05;18.80;99.90
8563;DHT22;16392;52.508;13.468;2023-06-19T05:17:32;18.80;99.90
8563;DHT22;16392;52.508;13.468;2023-06-19T05:19:59;18.70;99.90
8563;DHT22;16392;52.508;13.468;2023-06-19T05:22:25;18.70;99.90
8563;DHT22;16392;52.508;13.468;2023-06-19T05:24:53;18.70;99.90
8563;DHT22;16392;52.508;13.468;2023-06-19T05:27:20;18.80;99.90
8563;DHT22;16392;52.508;13.468;2023-06-19T05:29:46;18.80;99.90
8563;DHT22;16392;52.508;13.468;2023-06-19T05:32:13;18.80;99.90
8563;DHT22;16392;52.508;13.468;2023-06-19T05:34:40;18.90;99.90
8563;DHT22;16392;52.508;13.468;2023-06-19T05:37:06;18.90;99.90
8563;DHT22;16392;52.508;13.468;2023-06-19T05:39:33;18.90;99.90
8563;DHT22;16392;52.508;13.468;2023-06-19T05:42:01;18.90;99.90
8563;DHT22;16392;52.508;13.468;2023-06-19T05:44:28;19.10;99.90
8563;DHT22;16392;52.508;13.468;2023-06-19T05:46:54;19.10;99.90
8563;DHT22;16392;52.508;13.468;2023-06-19T05:49:21;19.10;99.90
8563;DHT22;16392;52.508;13.468;2023-06-19T05:51:48;19.10;99.90
8563;DHT22;16392;52.508;13.468;2023-06-19T05:54:14;19.00;99.90
8563;DHT22;16392;52.508;13.468;2023-06-19T05:56:43;19.00;99.90
8563;DHT22;16392;52.508;13.468;2023-06-19T05:59:11;19.00;99.90
8563;DHT22;16392;52.508;13.468;2023-06-19T06:01:40;19.00;99.90
8563;DHT22;16392;52.508;13.468;2023-06-19T06:04:06;19.00;99.90
8563;DHT22;16392;52.508;13.468;2023-06-19T06:06:33;19.10;99.90
8563;DHT22;16392;52.508;13.468;2023-06-19T06:09:00;19.20;99.90
8563;DHT22;16392;52.508;13.468;2023-06-19T06:11:26;19.30;99.90
8563;DHT22;16392;52.508;13.468;2023-06-19T06:13:53;19.40;99.90
8563;DHT22;16392;52.508;13.468;2023-06-19T06:16:21;19.40;99.90
8563;DHT22;16392;52.508;13.468;2023-06-19T06:18:47;19.50;99.90
8563;DHT22;16392;52.508;13.468;2023-06-19T06:21:14;19.50;99.90
8563;DHT22;16392;52.508;13.468;2023-06-19T06:23:41;19.40;99.90
8563;DHT22;16392;52.508;13.468;2023-06-19T06:26:10;19.50;99.90
8563;DHT22;16392;52.508;13.468;2023-06-19T06:28:36;19.50;99.90
8563;DHT22;16392;52.508;13.468;2023-06-19T06:31:04;19.60;99.90
8563;DHT22;16392;52.508;13.468;2023-06-19T06:33:32;19.60;99.90
8563;DHT22;16392;52.508;13.468;2023-06-19T06:35:59;19.60;99.90
8563;DHT22;16392;52.508;13.468;2023-06-19T06:38:26;19.60;99.90
8563;DHT22;16392;52.508;13.468;2023-06-19T06:40:53;19.60;99.90
8563;DHT22;16392;52.508;13.468;2023-06-19T06:43:19;19.70;99.90
8563;DHT22;16392;52.508;13.468;2023-06-19T06:45:46;19.80;99.90
8563;DHT22;16392;52.508;13.468;2023-06-19T06:48:12;19.80;99.90
8563;DHT22;16392;52.508;13.468;2023-06-19T06:50:40;19.90;99.90
8563;DHT22;16392;52.508;13.468;2023-06-19T06:53:07;20.00;99.90
8563;DHT22;16392;52.508;13.468;2023-06-19T06:55:34;20.10;99.90
8563;DHT22;16392;52.508;13.468;2023-06-19T06:58:01;20.20;99.90
8563;DHT22;16392;52.508;13.468;2023-06-19T07:00:29;20.30;99.90
8563;DHT22;16392;52.508;13.468;2023-06-19T07:02:55;20.40;99.90
8563;DHT22;16392;52.508;13.468;2023-06-19T07:05:22;20.40;99.90
8563;DHT22;16392;52.508;13.468;2023-06-19T07:07:50;20.60;99.90
8563;DHT22;16392;52.508;13.468;2023-06-19T07:10:17;20.70;99.90
8563;DHT22;16392;52.508;13.468;2023-06-19T07:12:45;20.90;99.90
8563;DHT22;16392;52.508;13.468;2023-06-19T07:15:11;21.00;99.90
8563;DHT22;16392;52.508;13.468;2023-06-19T07:17:38;21.10;99.90
8563;DHT22;16392;52.508;13.468;2023-06-19T07:20:05;21.20;76.60
8563;DHT22;16392;52.508;13.468;2023-06-19T07:22:32;21.40;1.00
8563;DHT22;16392;52.508;13.468;2023-06-19T07:25:00;21.40;1.00
8563;DHT22;16392;52.508;13.468;2023-06-19T07:27:27;21.50;1.00
8563;DHT22;16392;52.508;13.468;2023-06-19T07:29:54;21.50;1.00
8563;DHT22;16392;52.508;13.468;2023-06-19T07:32:20;21.40;1.00
8563;DHT22;16392;52.508;13.468;2023-06-19T07:34:47;21.40;1.00
8563;DHT22;16392;52.508;13.468;2023-06-19T07:37:14;21.50;1.00
8563;DHT22;16392;52.508;13.468;2023-06-19T07:39:43;21.60;1.00
8563;DHT22;16392;52.508;13.468;2023-06-19T07:42:11;21.70;1.00
8563;DHT22;16392;52.508;13.468;2023-06-19T07:44:38;21.90;1.00
8563;DHT22;16392;52.508;13.468;2023-06-19T07:47:05;22.20;99.90
8563;DHT22;16392;52.508;13.468;2023-06-19T07:49:32;22.20;2.20
8563;DHT22;16392;52.508;13.468;2023-06-19T07:51:58;22.20;1.00
8563;DHT22;16392;52.508;13.468;2023-06-19T07:54:25;22.40;99.90
8563;DHT22;16392;52.508;13.468;2023-06-19T07:56:51;22.50;1.00
8563;DHT22;16392;52.508;13.468;2023-06-19T07:59:20;22.70;1.00
8563;DHT22;16392;52.508;13.468;2023-06-19T08:01:46;22.90;1.00
8563;DHT22;16392;52.508;13.468;2023-06-19T08:04:13;23.10;1.00
8563;DHT22;16392;52.508;13.468;2023-06-19T08:06:40;23.00;1.00
8563;DHT22;16392;52.508;13.468;2023-06-19T08:09:06;22.90;1.00
8563;DHT22;16392;52.508;13.468;2023-06-19T08:11:33;22.90;1.00
8563;DHT22;16392;52.508;13.468;2023-06-19T08:14:00;23.10;1.00
8563;DHT22;16392;52.508;13.468;2023-06-19T08:16:28;23.10;1.00
8563;DHT22;16392;52.508;13.468;2023-06-19T08:18:55;22.90;11.10
8563;DHT22;16392;52.508;13.468;2023-06-19T08:21:22;23.00;1.00
8563;DHT22;16392;52.508;13.468;2023-06-19T08:23:48;23.20;99.90
8563;DHT22;16392;52.508;13.468;2023-06-19T08:26:15;23.40;1.00
8563;DHT22;16392;52.508;13.468;2023-06-19T08:28:43;23.60;99.90
8563;DHT22;16392;52.508;13.468;2023-06-19T08:31:10;23.50;1.00
8563;DHT22;16392;52.508;13.468;2023-06-19T08:33:38;23.80;99.90
8563;DHT22;16392;52.508;13.468;2023-06-19T08:36:05;23.80;1.00
8563;DHT22;16392;52.508;13.468;2023-06-19T08:38:32;23.90;99.90
8563;DHT22;16392;52.508;13.468;2023-06-19T08:40:58;23.80;38.60
8563;DHT22;16392;52.508;13.468;2023-06-19T08:43:25;23.80;1.00
8563;DHT22;16392;52.508;13.468;2023-06-19T08:46:07;23.80;99.90
8563;DHT22;16392;52.508;13.468;2023-06-19T08:48:34;23.80;1.00
8563;DHT22;16392;52.508;13.468;2023-06-19T08:51:02;23.80;95.20
8563;DHT22;16392;52.508;13.468;2023-06-19T08:53:33;23.90;1.00
8563;DHT22;16392;52.508;13.468;2023-06-19T08:56:00;24.10;22.00
8563;DHT22;16392;52.508;13.468;2023-06-19T08:58:27;24.20;1.00
8563;DHT22;16392;52.508;13.468;2023-06-19T09:00:54;24.10;1.00
8563;DHT22;16392;52.508;13.468;2023-06-19T09:03:21;23.90;1.00
8563;DHT22;16392;52.508;13.468;2023-06-19T09:05:48;24.10;1.00
8563;DHT22;16392;52.508;13.468;2023-06-19T09:08:18;24.10;1.00
8563;DHT22;16392;52.508;13.468;2023-06-19T09:10:57;24.20;1.00
8563;DHT22;16392;52.508;13.468;2023-06-19T09:13:24;24.20;99.90
8563;DHT22;16392;52.508;13.468;2023-06-19T09:15:58;24.50;99.90
8563;DHT22;16392;52.508;13.468;2023-06-19T09:18:25;24.40;1.00
8563;DHT22;16392;52.508;13.468;2023-06-19T09:20:53;24.20;1.00
8563;DHT22;16392;52.508;13.468;2023-06-19T09:23:22;24.20;1.00
8563;DHT22;16392;52.508;13.468;2023-06-19T09:25:51;24.10;1.00
8563;DHT22;16392;52.508;13.468;2023-06-19T09:28:20;24.10;1.00
8563;DHT22;16392;52.508;13.468;2023-06-19T09:30:54;24.30;1.00
8563;DHT22;16392;52.508;13.468;2023-06-19T09:33:22;24.50;1.00
8563;DHT22;16392;52.508;13.468;2023-06-19T09:35:49;24.60;99.90
8563;DHT22;16392;52.508;13.468;2023-06-19T09:38:17;24.60;99.90
8563;DHT22;16392;52.508;13.468;2023-06-19T09:40:46;24.50;99.90
8563;DHT22;16392;52.508;13.468;2023-06-19T09:43:18;24.60;1.00
8563;DHT22;16392;52.508;13.468;2023-06-19T09:45:48;24.80;1.00
8563;DHT22;16392;52.508;13.468;2023-06-19T09:48:18;24.60;1.00
8563;DHT22;16392;52.508;13.468;2023-06-19T09:50:48;24.90;1.00
8563;DHT22;16392;52.508;13.468;2023-06-19T09:53:15;25.20;1.00
8563;DHT22;16392;52.508;13.468;2023-06-19T09:55:42;25.30;99.90
8563;DHT22;16392;52.508;13.468;2023-06-19T09:58:10;25.30;1.00
8563;DHT22;16392;52.508;13.468;2023-06-19T10:00:37;25.30;99.90
8563;DHT22;16392;52.508;13.468;2023-06-19T10:03:04;25.10;41.00
8563;DHT22;16392;52.508;13.468;2023-06-19T10:05:38;25.20;99.90
8563;DHT22;16392;52.508;13.468;2023-06-19T10:08:05;25.20;99.90
8563;DHT22;16392;52.508;13.468;2023-06-19T10:10:32;25.40;99.90
8563;DHT22;16392;52.508;13.468;2023-06-19T10:13:10;25.10;1.00
8563;DHT22;16392;52.508;13.468;2023-06-19T10:15:44;25.40;99.90
8563;DHT22;16392;52.508;13.468;2023-06-19T10:18:14;25.40;99.90
8563;DHT22;16392;52.508;13.468;2023-06-19T10:20:44;25.40;32.30
8563;DHT22;16392;52.508;13.468;2023-06-19T10:23:13;25.40;99.90
8563;DHT22;16392;52.508;13.468;2023-06-19T10:25:44;25.40;99.90
8563;DHT22;16392;52.508;13.468;2023-06-19T10:28:17;25.40;1.00
8563;DHT22;16392;52.508;13.468;2023-06-19T10:30:52;25.40;99.90
8563;DHT22;16392;52.508;13.468;2023-06-19T10:33:18;25.50;1.00
8563;DHT22;16392;52.508;13.468;2023-06-19T10:35:45;25.40;99.90
8563;DHT22;16392;52.508;13.468;2023-06-19T10:38:15;25.70;1.00
8563;DHT22;16392;52.508;13.468;2023-06-19T10:40:43;25.90;1.00
8563;DHT22;16392;52.508;13.468;2023-06-19T10:43:10;25.80;1.00
8563;DHT22;16392;52.508;13.468;2023-06-19T10:45:37;25.40;1.00
8563;DHT22;16392;52.508;13.468;2023-06-19T10:48:05;24.90;99.50
8563;DHT22;16392;52.508;13.468;2023-06-19T10:50:34;24.60;1.00
8563;DHT22;16392;52.508;13.468;2023-06-19T10:53:01;24.50;98.40
8563;DHT22;16392;52.508;13.468;2023-06-19T10:55:28;24.60;1.00
8563;DHT22;16392;52.508;13.468;2023-06-19T10:57:55;24.70;1.00
8563;DHT22;16392;52.508;13.468;2023-06-19T11:00:23;24.80;1.00
8563;DHT22;16392;52.508;13.468;2023-06-19T11:02:50;25.10;99.90
8563;DHT22;16392;52.508;13.468;2023-06-19T11:05:21;25.30;99.90
8563;DHT22;16392;52.508;13.468;2023-06-19T11:07:52;25.50;1.00
8563;DHT22;16392;52.508;13.468;2023-06-19T11:10:20;25.70;1.00
8563;DHT22;16392;52.508;13.468;2023-06-19T11:12:49;26.00;99.90
8563;DHT22;16392;52.508;13.468;2023-06-19T11:15:16;26.50;99.90
8563;DHT22;16392;52.508;13.468;2023-06-19T11:17:42;26.40;99.90
8563;DHT22;16392;52.508;13.468;2023-06-19T11:20:10;26.10;99.90
8563;DHT22;16392;52.508;13.468;2023-06-19T11:22:40;26.20;99.90
8563;DHT22;16392;52.508;13.468;2023-06-19T11:25:09;26.20;32.50
8563;DHT22;16392;52.508;13.468;2023-06-19T11:27:38;26.10;1.00
8563;DHT22;16392;52.508;13.468;2023-06-19T11:30:06;26.00;1.00
8563;DHT22;16392;52.508;13.468;2023-06-19T11:32:34;26.10;1.00
8563;DHT22;16392;52.508;13.468;2023-06-19T11:35:08;26.30;1.00
8563;DHT22;16392;52.508;13.468;2023-06-19T11:37:36;26.40;1.00
8563;DHT22;16392;52.508;13.468;2023-06-19T11:40:05;26.50;1.00
8563;DHT22;16392;52.508;13.468;2023-06-19T11:42:47;26.60;1.00
8563;DHT22;16392;52.508;13.468;2023-06-19T11:45:14;26.50;1.00
8563;DHT22;16392;52.508;13.468;2023-06-19T11:47:43;26.70;1.00
8563;DHT22;16392;52.508;13.468;2023-06-19T11:50:10;26.80;99.90
8563;DHT22;16392;52.508;13.468;2023-06-19T11:52:37;26.70;99.90
8563;DHT22;16392;52.508;13.468;2023-06-19T11:55:06;27.10;99.90
8563;DHT22;16392;52.508;13.468;2023-06-19T11:57:33;27.10;99.90
8563;DHT22;16392;52.508;13.468;2023-06-19T11:59:59;27.10;99.90
8563;DHT22;16392;52.508;13.468;2023-06-19T12:02:26;27.60;99.90
8563;DHT22;16392;52.508;13.468;2023-06-19T12:04:54;28.00;99.90
8563;DHT22;16392;52.508;13.468;2023-06-19T12:07:20;28.40;1.00
8563;DHT22;16392;52.508;13.468;2023-06-19T12:09:47;28.70;2.10
8563;DHT22;16392;52.508;13.468;2023-06-19T12:12:15;29.40;1.00
8563;DHT22;16392;52.508;13.468;2023-06-19T12:14:41;29.40;1.00
8563;DHT22;16392;52.508;13.468;2023-06-19T12:17:08;29.50;1.00
8563;DHT22;16392;52.508;13.468;2023-06-19T12:19:36;29.10;1.00
8563;DHT22;16392;52.508;13.468;2023-06-19T12:22:04;28.60;1.00
8563;DHT22;16392;52.508;13.468;2023-06-19T12:24:30;28.70;1.00
8563;DHT22;16392;52.508;13.468;2023-06-19T12:26:57;28.50;1.00
8563;DHT22;16392;52.508;13.468;2023-06-19T12:29:25;28.40;1.00
8563;DHT22;16392;52.508;13.468;2023-06-19T12:31:51;28.70;1.00
8563;DHT22;16392;52.508;13.468;2023-06-19T12:34:18;29.00;1.00
8563;DHT22;16392;52.508;13.468;2023-06-19T12:36:44;29.30;1.00
8563;DHT22;16392;52.508;13.468;2023-06-19T12:39:11;29.40;1.00
8563;DHT22;16392;52.508;13.468;2023-06-19T12:41:41;29.60;1.00
8563;DHT22;16392;52.508;13.468;2023-06-19T12:44:08;29.80;1.00
8563;DHT22;16392;52.508;13.468;2023-06-19T12:46:36;29.90;1.00
8563;DHT22;16392;52.508;13.468;2023-06-19T12:49:02;29.60;1.00
8563;DHT22;16392;52.508;13.468;2023-06-19T12:51:29;29.60;1.00
8563;DHT22;16392;52.508;13.468;2023-06-19T12:53:56;29.40;1.00
8563;DHT22;16392;52.508;13.468;2023-06-19T12:56:22;29.30;99.90
8563;DHT22;16392;52.508;13.468;2023-06-19T12:58:49;29.00;99.90
8563;DHT22;16392;52.508;13.468;2023-06-19T13:01:16;29.10;99.90
8563;DHT22;16392;52.508;13.468;2023-06-19T13:03:44;29.30;99.90
8563;DHT22;16392;52.508;13.468;2023-06-19T13:06:11;30.30;99.90
8563;DHT22;16392;52.508;13.468;2023-06-19T13:08:38;30.10;99.90
8563;DHT22;16392;52.508;13.468;2023-06-19T13:11:04;29.50;99.90
8563;DHT22;16392;52.508;13.468;2023-06-19T13:13:31;29.00;99.90
8563;DHT22;16392;52.508;13.468;2023-06-19T13:15:57;28.80;99.90
8563;DHT22;16392;52.508;13.468;2023-06-19T13:18:24;28.60;99.90
8563;DHT22;16392;52.508;13.468;2023-06-19T13:20:52;28.60;99.90
8563;DHT22;16392;52.508;13.468;2023-06-19T13:23:18;28.60;99.90
8563;DHT22;16392;52.508;13.468;2023-06-19T13:25:45;29.10;99.90
8563;DHT22;16392;52.508;13.468;2023-06-19T13:28:11;29.80;99.90
8563;DHT22;16392;52.508;13.468;2023-06-19T13:30:38;30.20;99.90
8563;DHT22;16392;52.508;13.468;2023-06-19T13:33:05;30.00;99.90
8563;DHT22;16392;52.508;13.468;2023-06-19T13:35:31;30.00;99.90
8563;DHT22;16392;52.508;13.468;2023-06-19T13:38:00;30.50;99.90
8563;DHT22;16392;52.508;13.468;2023-06-19T13:40:26;30.50;99.90
8563;DHT22;16392;52.508;13.468;2023-06-19T13:42:53;30.20;99.90
8563;DHT22;16392;52.508;13.468;2023-06-19T13:45:20;29.80;99.90
8563;DHT22;16392;52.508;13.468;2023-06-19T13:47:47;29.60;99.90
8563;DHT22;16392;52.508;13.468;2023-06-19T13:50:13;29.70;99.90
8563;DHT22;16392;52.508;13.468;2023-06-19T13:52:44;29.80;99.90
8563;DHT22;16392;52.508;13.468;2023-06-19T13:55:12;30.30;99.90
8563;DHT22;16392;52.508;13.468;2023-06-19T13:57:39;30.50;99.90
8563;DHT22;16392;52.508;13.468;2023-06-19T14:00:08;30.60;99.90
8563;DHT22;16392;52.508;13.468;2023-06-19T14:02:36;30.20;99.90
8563;DHT22;16392;52.508;13.468;2023-06-19T14:05:02;30.00;99.90
8563;DHT22;16392;52.508;13.468;2023-06-19T14:07:29;30.00;99.90
8563;DHT22;16392;52.508;13.468;2023-06-19T14:09:55;29.70;99.90
8563;DHT22;16392;52.508;13.468;2023-06-19T14:12:23;29.90;99.90
8563;DHT22;16392;52.508;13.468;2023-06-19T14:14:50;29.80;99.90
8563;DHT22;16392;52.508;13.468;2023-06-19T14:17:17;29.80;99.90
8563;DHT22;16392;52.508;13.468;2023-06-19T14:19:44;29.90;99.90
8563;DHT22;16392;52.508;13.468;2023-06-19T14:22:10;30.20;99.90
8563;DHT22;16392;52.508;13.468;2023-06-19T14:24:37;30.20;99.90
8563;DHT22;16392;52.508;13.468;2023-06-19T14:27:04;29.80;99.90
8563;DHT22;16392;52.508;13.468;2023-06-19T14:29:32;29.60;99.90
8563;DHT22;16392;52.508;13.468;2023-06-19T14:31:59;29.40;99.90
8563;DHT22;16392;52.508;13.468;2023-06-19T14:34:25;29.40;99.90
8563;DHT22;16392;52.508;13.468;2023-06-19T14:36:52;29.30;99.90
8563;DHT22;16392;52.508;13.468;2023-06-19T14:39:19;29.40;99.90
8563;DHT22;16392;52.508;13.468;2023-06-19T14:41:45;29.60;99.90
8563;DHT22;16392;52.508;13.468;2023-06-19T14:44:12;29.70;99.90
8563;DHT22;16392;52.508;13.468;2023-06-19T14:46:40;29.90;99.90
8563;DHT22;16392;52.508;13.468;2023-06-19T14:49:06;29.90;99.90
8563;DHT22;16392;52.508;13.468;2023-06-19T14:51:33;29.80;99.90
8563;DHT22;16392;52.508;13.468;2023-06-19T14:54:00;29.50;99.90
8563;DHT22;16392;52.508;13.468;2023-06-19T14:56:26;29.80;99.90
8563;DHT22;16392;52.508;13.468;2023-06-19T14:58:53;29.80;99.90
8563;DHT22;16392;52.508;13.468;2023-06-19T15:01:19;30.00;99.90
8563;DHT22;16392;52.508;13.468;2023-06-19T15:03:47;29.70;99.90
8563;DHT22;16392;52.508;13.468;2023-06-19T15:06:14;29.50;99.90
8563;DHT22;16392;52.508;13.468;2023-06-19T15:08:40;29.80;99.90
8563;DHT22;16392;52.508;13.468;2023-06-19T15:11:07;29.70;99.90
8563;DHT22;16392;52.508;13.468;2023-06-19T15:13:34;29.70;99.90
8563;DHT22;16392;52.508;13.468;2023-06-19T15:16:01;29.60;99.90
8563;DHT22;16392;52.508;13.468;2023-06-19T15:18:30;29.30;99.90
8563;DHT22;16392;52.508;13.468;2023-06-19T15:20:58;29.40;99.90
8563;DHT22;16392;52.508;13.468;2023-06-19T15:23:26;29.40;99.90
8563;DHT22;16392;52.508;13.468;2023-06-19T15:25:52;29.30;99.90
8563;DHT22;16392;52.508;13.468;2023-06-19T15:28:19;29.30;99.90
8563;DHT22;16392;52.508;13.468;2023-06-19T15:30:46;29.00;99.90
8563;DHT22;16392;52.508;13.468;2023-06-19T15:33:13;29.00;99.90
8563;DHT22;16392;52.508;13.468;2023-06-19T15:35:39;28.90;99.90
8563;DHT22;16392;52.508;13.468;2023-06-19T15:38:08;29.00;99.90
8563;DHT22;16392;52.508;13.468;2023-06-19T15:40:34;28.90;99.90
8563;DHT22;16392;52.508;13.468;2023-06-19T15:43:01;28.80;99.90
8563;DHT22;16392;52.508;13.468;2023-06-19T15:45:27;28.80;99.90
8563;DHT22;16392;52.508;13.468;2023-06-19T15:47:54;28.60;99.90
8563;DHT22;16392;52.508;13.468;2023-06-19T15:50:21;28.50;99.90
8563;DHT22;16392;52.508;13.468;2023-06-19T15:52:48;28.70;99.90
8563;DHT22;16392;52.508;13.468;2023-06-19T15:55:16;28.90;99.90
8563;DHT22;16392;52.508;13.468;2023-06-19T15:57:43;29.00;99.90
8563;DHT22;16392;52.508;13.468;2023-06-19T16:00:12;29.10;99.90
8563;DHT22;16392;52.508;13.468;2023-06-19T16:02:40;29.20;99.90
8563;DHT22;16392;52.508;13.468;2023-06-19T16:05:08;29.30;99.90